• Join FlightAware (Why Join?)
  • Login
  • US Flag 
10:43AM EDT


 

Airport Tracker/Info


-or-


 

Live Flight TrackerFlight Track Log ✈ N588WS ✈ 01-May-2013 ✈ KGUP - KFMN

Flight Track Log - Related Links

Times and Time Zones

All times are in EDT time to prevent confusion due to time zone crossing. See the N588WS flight status page for this flight to view local times or setup timezone preferences in your user account.

Time Position Orientation Groundspeed Altitude Reporting Facility
EDT Latitude Longitude Course Direction KTS MPH feet Rate Location/Type
08:31AM 35.8481 -108.6564 20° North 243 280 12,800  Level Denver Center
08:33AM 35.9077 -108.5961 22° Northeast  Level FlightAware Approximate
08:36AM 35.7294 -108.6796 20° North  Level FlightAware Approximate
08:40AM 36.2290 -108.4439 22° Northeast  Level FlightAware Approximate
08:41AM 36.2752 -108.4233 18° North  Level FlightAware Approximate
08:42AM 36.3220 -108.4046 18° North  Level FlightAware Approximate
08:43AM 36.3688 -108.3858 18° North  Level FlightAware Approximate
08:44AM 36.4156 -108.3671 18° North  Level FlightAware Approximate
08:45AM 36.4622 -108.3477 18° North  Level FlightAware Approximate
08:46AM 36.5088 -108.3283 19° North  Level FlightAware Approximate
08:47AM 36.5554 -108.3089 19° North  Level FlightAware Approximate
08:48AM 36.6020 -108.2895 19° North  Level FlightAware Approximate
08:49AM 36.6473 -108.2659 25° Northeast  Level FlightAware Approximate
08:50AM 36.6920 -108.2403 25° Northeast  Level FlightAware Approximate
08:51AM 36.7333 -108.2167 25° Northeast  Level FlightAware Approximate
08:52AM 36.7412 -108.2299 25° Northeast  Level Estimated
08:53AM 36.7412 -108.2299 25° Northeast  Level Estimated
08:54AM 36.7412 -108.2299 25° Northeast  Level Estimated
08:55AM 36.7412 -108.2299 25° Northeast  Level Estimated
08:56AM 36.7412 -108.2299 25° Northeast  Level Estimated
08:57AM 36.7412 -108.2299 25° Northeast  Level Estimated
08:58AM 36.7412 -108.2299 25° Northeast  Level Estimated
08:59AM 36.7412 -108.2299 25° Northeast  Level Estimated
09:00AM 36.7412 -108.2299 25° Northeast  Level Estimated
09:01AM 36.7412 -108.2299 25° Northeast  Level Estimated
09:02AM 36.7412 -108.2299 25° Northeast  Level Estimated
09:03AM 36.7412 -108.2299 25° Northeast  Level Estimated
09:04AM 36.7412 -108.2299 25° Northeast  Level Estimated
09:05AM 36.7412 -108.2299 25° Northeast  Level Estimated
09:06AM 36.7412 -108.2299 25° Northeast  Level Estimated
09:07AM 36.7412 -108.2299 25° Northeast  Level Estimated
09:08AM 36.7412 -108.2299 25° Northeast  Level Estimated
09:09AM 36.7412 -108.2299 25° Northeast  Level Estimated
09:10AM 36.7412 -108.2299 25° Northeast  Level Estimated
09:11AM 36.7412 -108.2299 25° Northeast  Level Estimated
09:12AM 36.7412 -108.2299 25° Northeast  Level Estimated
09:13AM 36.7412 -108.2299 25° Northeast  Level Estimated